sensor_id;sensor_type;location;lat;lon;timestamp;pressure;altitude;pressure_sealevel;temperature;humidity
21821;BME280;11073;48.586;12.066;2023-06-19T00:00:45;96171.00;;;22.66;41.37
21821;BME280;11073;48.586;12.066;2023-06-19T00:03:14;96167.13;;;22.67;41.31
21821;BME280;11073;48.586;12.066;2023-06-19T00:05:43;96170.97;;;22.57;41.60
21821;BME280;11073;48.586;12.066;2023-06-19T00:08:12;96179.25;;;22.57;41.64
21821;BME280;11073;48.586;12.066;2023-06-19T00:10:42;96167.59;;;22.61;41.67
21821;BME280;11073;48.586;12.066;2023-06-19T00:13:11;96170.16;;;22.57;41.73
21821;BME280;11073;48.586;12.066;2023-06-19T00:15:39;96175.34;;;22.58;41.77
21821;BME280;11073;48.586;12.066;2023-06-19T00:18:09;96175.88;;;22.61;41.87
21821;BME280;11073;48.586;12.066;2023-06-19T00:20:38;96162.56;;;22.54;41.33
21821;BME280;11073;48.586;12.066;2023-06-19T00:23:08;96160.75;;;22.49;41.33
21821;BME280;11073;48.586;12.066;2023-06-19T00:25:40;96160.88;;;22.44;41.33
21821;BME280;11073;48.586;12.066;2023-06-19T00:28:12;96164.78;;;22.43;41.23
21821;BME280;11073;48.586;12.066;2023-06-19T00:30:42;96164.47;;;22.45;41.16
21821;BME280;11073;48.586;12.066;2023-06-19T00:33:14;96154.41;;;22.40;41.49
21821;BME280;11073;48.586;12.066;2023-06-19T00:35:42;96154.88;;;22.42;41.63
21821;BME280;11073;48.586;12.066;2023-06-19T00:38:12;96160.25;;;22.39;41.73
21821;BME280;11073;48.586;12.066;2023-06-19T00:40:41;96142.91;;;22.38;42.05
21821;BME280;11073;48.586;12.066;2023-06-19T00:43:11;96138.16;;;22.30;41.90
21821;BME280;11073;48.586;12.066;2023-06-19T00:45:40;96143.03;;;22.24;42.67
21821;BME280;11073;48.586;12.066;2023-06-19T00:48:11;96134.56;;;22.21;42.36
21821;BME280;11073;48.586;12.066;2023-06-19T00:50:40;96140.22;;;22.16;42.92
21821;BME280;11073;48.586;12.066;2023-06-19T00:53:09;96143.16;;;22.19;42.65
21821;BME280;11073;48.586;12.066;2023-06-19T00:55:38;96139.56;;;22.10;42.88
21821;BME280;11073;48.586;12.066;2023-06-19T00:58:09;96146.50;;;22.08;43.27
21821;BME280;11073;48.586;12.066;2023-06-19T01:00:39;96147.94;;;21.96;43.17
21821;BME280;11073;48.586;12.066;2023-06-19T01:03:18;96146.75;;;21.89;43.60
21821;BME280;11073;48.586;12.066;2023-06-19T01:05:50;96147.53;;;21.81;43.78
21821;BME280;11073;48.586;12.066;2023-06-19T01:08:34;96125.63;;;21.75;43.41
21821;BME280;11073;48.586;12.066;2023-06-19T01:11:08;96140.69;;;21.78;43.84
21821;BME280;11073;48.586;12.066;2023-06-19T01:13:47;96136.16;;;21.73;43.56
21821;BME280;11073;48.586;12.066;2023-06-19T01:16:18;96136.28;;;21.68;43.36
21821;BME280;11073;48.586;12.066;2023-06-19T01:18:48;96139.28;;;21.81;43.24
21821;BME280;11073;48.586;12.066;2023-06-19T01:21:18;96139.44;;;21.84;43.24
21821;BME280;11073;48.586;12.066;2023-06-19T01:23:48;96121.28;;;21.83;43.37
21821;BME280;11073;48.586;12.066;2023-06-19T01:26:17;96131.16;;;21.84;43.76
21821;BME280;11073;48.586;12.066;2023-06-19T01:28:47;96143.97;;;21.80;43.87
21821;BME280;11073;48.586;12.066;2023-06-19T01:31:20;96143.13;;;21.80;44.16
21821;BME280;11073;48.586;12.066;2023-06-19T01:33:52;96146.84;;;21.75;44.69
21821;BME280;11073;48.586;12.066;2023-06-19T01:36:21;96139.84;;;21.69;44.87
21821;BME280;11073;48.586;12.066;2023-06-19T01:38:55;96132.53;;;21.64;45.00
21821;BME280;11073;48.586;12.066;2023-06-19T01:41:26;96145.31;;;21.60;44.38
21821;BME280;11073;48.586;12.066;2023-06-19T01:43:54;96138.38;;;21.63;44.76
21821;BME280;11073;48.586;12.066;2023-06-19T01:46:24;96145.38;;;21.69;44.49
21821;BME280;11073;48.586;12.066;2023-06-19T01:48:54;96139.38;;;21.67;44.08
21821;BME280;11073;48.586;12.066;2023-06-19T01:51:23;96130.75;;;21.60;43.59
21821;BME280;11073;48.586;12.066;2023-06-19T01:53:54;96144.72;;;21.72;43.28
21821;BME280;11073;48.586;12.066;2023-06-19T01:56:23;96145.72;;;21.76;43.28
21821;BME280;11073;48.586;12.066;2023-06-19T01:58:52;96140.88;;;21.73;43.51
21821;BME280;11073;48.586;12.066;2023-06-19T02:01:22;96149.78;;;21.79;44.08
21821;BME280;11073;48.586;12.066;2023-06-19T02:03:51;96155.81;;;21.81;44.38
21821;BME280;11073;48.586;12.066;2023-06-19T02:06:20;96159.66;;;21.80;44.61
21821;BME280;11073;48.586;12.066;2023-06-19T02:08:50;96158.03;;;21.79;44.85
21821;BME280;11073;48.586;12.066;2023-06-19T02:11:20;96159.03;;;21.83;44.61
21821;BME280;11073;48.586;12.066;2023-06-19T02:13:48;96162.94;;;21.82;45.17
21821;BME280;11073;48.586;12.066;2023-06-19T02:16:17;96168.25;;;21.78;44.94
21821;BME280;11073;48.586;12.066;2023-06-19T02:18:48;96172.78;;;21.74;45.46
21821;BME280;11073;48.586;12.066;2023-06-19T02:21:17;96163.03;;;21.68;45.40
21821;BME280;11073;48.586;12.066;2023-06-19T02:23:46;96163.88;;;21.77;45.13
21821;BME280;11073;48.586;12.066;2023-06-19T02:26:15;96167.13;;;21.79;44.67
21821;BME280;11073;48.586;12.066;2023-06-19T02:28:48;96167.94;;;21.80;44.54
21821;BME280;11073;48.586;12.066;2023-06-19T02:31:17;96159.38;;;21.81;44.45
21821;BME280;11073;48.586;12.066;2023-06-19T02:33:45;96164.38;;;21.79;43.83
21821;BME280;11073;48.586;12.066;2023-06-19T02:36:14;96155.28;;;21.79;43.71
21821;BME280;11073;48.586;12.066;2023-06-19T02:38:48;96149.41;;;21.71;43.44
21821;BME280;11073;48.586;12.066;2023-06-19T02:41:16;96161.59;;;21.79;43.53
21821;BME280;11073;48.586;12.066;2023-06-19T02:43:45;96153.66;;;21.78;43.67
21821;BME280;11073;48.586;12.066;2023-06-19T02:46:16;96161.44;;;21.75;43.86
21821;BME280;11073;48.586;12.066;2023-06-19T02:48:45;96168.25;;;21.78;44.66
21821;BME280;11073;48.586;12.066;2023-06-19T02:51:15;96165.69;;;21.82;45.18
21821;BME280;11073;48.586;12.066;2023-06-19T02:53:44;96165.69;;;21.82;45.84
21821;BME280;11073;48.586;12.066;2023-06-19T02:56:13;96166.19;;;21.84;46.11
21821;BME280;11073;48.586;12.066;2023-06-19T02:58:44;96167.00;;;21.84;46.49
21821;BME280;11073;48.586;12.066;2023-06-19T03:01:12;96170.69;;;21.80;46.48
21821;BME280;11073;48.586;12.066;2023-06-19T03:03:45;96176.38;;;21.83;46.38
21821;BME280;11073;48.586;12.066;2023-06-19T03:06:15;96162.22;;;21.67;46.35
21821;BME280;11073;48.586;12.066;2023-06-19T03:08:46;96196.44;;;21.75;46.79
21821;BME280;11073;48.586;12.066;2023-06-19T03:11:14;96187.16;;;21.71;46.61
21821;BME280;11073;48.586;12.066;2023-06-19T03:13:48;96174.03;;;21.68;46.79
21821;BME280;11073;48.586;12.066;2023-06-19T03:16:18;96187.00;;;21.67;47.11
21821;BME280;11073;48.586;12.066;2023-06-19T03:18:50;96183.94;;;21.69;47.18
21821;BME280;11073;48.586;12.066;2023-06-19T03:21:22;96195.28;;;21.67;47.13
21821;BME280;11073;48.586;12.066;2023-06-19T03:23:52;96188.31;;;21.70;47.13
21821;BME280;11073;48.586;12.066;2023-06-19T03:26:23;96184.88;;;21.64;47.37
21821;BME280;11073;48.586;12.066;2023-06-19T03:28:58;96203.38;;;21.72;47.16
21821;BME280;11073;48.586;12.066;2023-06-19T03:31:33;96196.88;;;21.68;47.19
21821;BME280;11073;48.586;12.066;2023-06-19T03:34:04;96199.97;;;21.67;46.80
21821;BME280;11073;48.586;12.066;2023-06-19T03:36:35;96206.91;;;21.64;46.96
21821;BME280;11073;48.586;12.066;2023-06-19T03:39:08;96213.59;;;21.72;46.89
21821;BME280;11073;48.586;12.066;2023-06-19T03:41:38;96223.31;;;21.69;46.95
21821;BME280;11073;48.586;12.066;2023-06-19T03:44:07;96220.38;;;21.66;47.13
21821;BME280;11073;48.586;12.066;2023-06-19T03:46:36;96223.13;;;21.66;47.51
21821;BME280;11073;48.586;12.066;2023-06-19T03:49:07;96229.75;;;21.65;47.42
21821;BME280;11073;48.586;12.066;2023-06-19T03:51:36;96228.28;;;21.59;47.46
21821;BME280;11073;48.586;12.066;2023-06-19T03:54:06;96234.72;;;21.54;47.61
21821;BME280;11073;48.586;12.066;2023-06-19T03:56:35;96235.69;;;21.58;47.87
21821;BME280;11073;48.586;12.066;2023-06-19T03:59:04;96233.41;;;21.52;47.97
21821;BME280;11073;48.586;12.066;2023-06-19T04:01:33;96236.66;;;21.54;48.03
21821;BME280;11073;48.586;12.066;2023-06-19T04:04:02;96223.00;;;21.48;48.04
21821;BME280;11073;48.586;12.066;2023-06-19T04:06:32;96237.03;;;21.61;47.89
21821;BME280;11073;48.586;12.066;2023-06-19T04:09:02;96232.66;;;21.60;48.06
21821;BME280;11073;48.586;12.066;2023-06-19T04:11:31;96232.81;;;21.63;48.09
21821;BME280;11073;48.586;12.066;2023-06-19T04:14:01;96231.25;;;21.71;48.41
21821;BME280;11073;48.586;12.066;2023-06-19T04:16:30;96241.78;;;21.69;48.16
21821;BME280;11073;48.586;12.066;2023-06-19T04:19:00;96241.78;;;21.69;48.58
21821;BME280;11073;48.586;12.066;2023-06-19T04:21:31;96250.22;;;21.72;48.31
21821;BME280;11073;48.586;12.066;2023-06-19T04:24:00;96248.28;;;21.73;48.36
21821;BME280;11073;48.586;12.066;2023-06-19T04:26:32;96244.19;;;21.70;47.79
21821;BME280;11073;48.586;12.066;2023-06-19T04:29:02;96224.63;;;21.50;47.95
21821;BME280;11073;48.586;12.066;2023-06-19T04:31:30;96243.66;;;21.60;48.36
21821;BME280;11073;48.586;12.066;2023-06-19T04:33:59;96236.22;;;21.60;48.06
21821;BME280;11073;48.586;12.066;2023-06-19T04:36:33;96251.53;;;21.75;48.46
21821;BME280;11073;48.586;12.066;2023-06-19T04:39:02;96250.78;;;21.83;48.22
21821;BME280;11073;48.586;12.066;2023-06-19T04:41:31;96246.41;;;21.82;48.09
21821;BME280;11073;48.586;12.066;2023-06-19T04:44:00;96250.78;;;21.83;48.13
21821;BME280;11073;48.586;12.066;2023-06-19T04:46:30;96258.03;;;21.79;48.06
21821;BME280;11073;48.586;12.066;2023-06-19T04:48:58;96257.03;;;21.75;48.28
21821;BME280;11073;48.586;12.066;2023-06-19T04:51:28;96254.53;;;21.65;48.07
21821;BME280;11073;48.586;12.066;2023-06-19T04:53:58;96250.47;;;21.62;48.56
21821;BME280;11073;48.586;12.066;2023-06-19T04:56:28;96275.63;;;21.69;48.02
21821;BME280;11073;48.586;12.066;2023-06-19T04:58:57;96274.50;;;21.70;48.49
21821;BME280;11073;48.586;12.066;2023-06-19T05:01:27;96274.63;;;21.65;48.32
21821;BME280;11073;48.586;12.066;2023-06-19T05:03:56;96274.25;;;21.58;48.18
21821;BME280;11073;48.586;12.066;2023-06-19T05:06:27;96277.59;;;21.46;48.52
21821;BME280;11073;48.586;12.066;2023-06-19T05:08:56;96277.91;;;21.45;48.35
21821;BME280;11073;48.586;12.066;2023-06-19T05:11:26;96287.78;;;21.46;48.33
21821;BME280;11073;48.586;12.066;2023-06-19T05:13:55;96287.06;;;21.40;48.93
21821;BME280;11073;48.586;12.066;2023-06-19T05:16:24;96288.69;;;21.41;48.86
21821;BME280;11073;48.586;12.066;2023-06-19T05:18:53;96290.84;;;21.44;48.77
21821;BME280;11073;48.586;12.066;2023-06-19T05:21:21;96293.59;;;21.44;48.57
21821;BME280;11073;48.586;12.066;2023-06-19T05:23:50;96295.97;;;21.37;48.72
21821;BME280;11073;48.586;12.066;2023-06-19T05:26:20;96303.28;;;21.42;48.44
21821;BME280;11073;48.586;12.066;2023-06-19T05:28:51;96297.16;;;21.45;48.23
21821;BME280;11073;48.586;12.066;2023-06-19T05:31:19;96300.09;;;21.48;47.98
21821;BME280;11073;48.586;12.066;2023-06-19T05:33:48;96297.66;;;21.47;48.06
21821;BME280;11073;48.586;12.066;2023-06-19T05:36:17;96293.66;;;21.53;47.72
21821;BME280;11073;48.586;12.066;2023-06-19T05:38:46;96290.59;;;21.55;47.95
21821;BME280;11073;48.586;12.066;2023-06-19T05:41:15;96294.22;;;21.64;47.62
21821;BME280;11073;48.586;12.066;2023-06-19T05:43:44;96293.78;;;21.70;47.94
21821;BME280;11073;48.586;12.066;2023-06-19T05:46:14;96298.97;;;21.72;47.99
21821;BME280;11073;48.586;12.066;2023-06-19T05:48:43;96307.44;;;21.75;47.93
21821;BME280;11073;48.586;12.066;2023-06-19T05:51:11;96303.75;;;21.80;47.47
21821;BME280;11073;48.586;12.066;2023-06-19T05:53:40;96314.94;;;21.84;47.43
21821;BME280;11073;48.586;12.066;2023-06-19T05:56:08;96309.13;;;21.85;nan
21821;BME280;11073;48.586;12.066;2023-06-19T05:58:37;96320.41;;;21.97;46.61
21821;BME280;11073;48.586;12.066;2023-06-19T06:01:07;96336.41;;;22.09;46.44
21821;BME280;11073;48.586;12.066;2023-06-19T06:03:37;96326.72;;;22.20;46.29
21821;BME280;11073;48.586;12.066;2023-06-19T06:06:05;96325.13;;;22.28;45.84
21821;BME280;11073;48.586;12.066;2023-06-19T06:08:34;96324.22;;;22.33;45.65
21821;BME280;11073;48.586;12.066;2023-06-19T06:11:03;96342.25;;;22.39;45.56
21821;BME280;11073;48.586;12.066;2023-06-19T06:13:32;96328.50;;;22.47;45.30
21821;BME280;11073;48.586;12.066;2023-06-19T06:16:01;96326.22;;;22.49;44.91
21821;BME280;11073;48.586;12.066;2023-06-19T06:18:29;96329.34;;;22.56;44.90
21821;BME280;11073;48.586;12.066;2023-06-19T06:21:01;96349.19;;;22.67;44.94
21821;BME280;11073;48.586;12.066;2023-06-19T06:23:31;96341.56;;;22.73;44.65
21821;BME280;11073;48.586;12.066;2023-06-19T06:25:59;96332.88;;;22.88;44.69
21821;BME280;11073;48.586;12.066;2023-06-19T06:28:30;96338.94;;;22.99;44.15
21821;BME280;11073;48.586;12.066;2023-06-19T06:30:59;96334.56;;;23.06;44.41
21821;BME280;11073;48.586;12.066;2023-06-19T06:33:28;96345.31;;;23.17;44.18
21821;BME280;11073;48.586;12.066;2023-06-19T06:35:57;96339.16;;;23.20;44.07
21821;BME280;11073;48.586;12.066;2023-06-19T06:38:28;96352.16;;;23.28;44.65
21821;BME280;11073;48.586;12.066;2023-06-19T06:40:58;96350.38;;;23.32;44.37
21821;BME280;11073;48.586;12.066;2023-06-19T06:43:26;96361.25;;;23.37;44.68
21821;BME280;11073;48.586;12.066;2023-06-19T06:45:55;96356.22;;;23.39;44.51
21821;BME280;11073;48.586;12.066;2023-06-19T06:48:23;96355.25;;;23.44;44.27
21821;BME280;11073;48.586;12.066;2023-06-19T06:50:52;96361.59;;;23.44;44.64
21821;BME280;11073;48.586;12.066;2023-06-19T06:53:28;96367.78;;;23.50;44.28
21821;BME280;11073;48.586;12.066;2023-06-19T06:55:59;96360.16;;;23.55;44.61
21821;BME280;11073;48.586;12.066;2023-06-19T06:58:28;96357.56;;;23.59;44.77
21821;BME280;11073;48.586;12.066;2023-06-19T07:00:57;96357.09;;;23.65;44.58
21821;BME280;11073;48.586;12.066;2023-06-19T07:03:26;96360.53;;;23.71;44.51
21821;BME280;11073;48.586;12.066;2023-06-19T07:05:57;96359.72;;;23.79;44.58
21821;BME280;11073;48.586;12.066;2023-06-19T07:08:28;96352.72;;;23.82;44.44
21821;BME280;11073;48.586;12.066;2023-06-19T07:10:57;96353.69;;;23.86;44.19
21821;BME280;11073;48.586;12.066;2023-06-19T07:13:26;96354.03;;;23.84;44.38
21821;BME280;11073;48.586;12.066;2023-06-19T07:15:55;96366.84;;;23.89;44.25
21821;BME280;11073;48.586;12.066;2023-06-19T07:18:25;96376.59;;;23.95;44.20
21821;BME280;11073;48.586;12.066;2023-06-19T07:20:54;96374.84;;;23.99;44.08
21821;BME280;11073;48.586;12.066;2023-06-19T07:23:23;96377.91;;;24.06;44.01
21821;BME280;11073;48.586;12.066;2023-06-19T07:25:53;96382.94;;;24.21;43.44
21821;BME280;11073;48.586;12.066;2023-06-19T07:28:22;96379.81;;;24.32;43.30
21821;BME280;11073;48.586;12.066;2023-06-19T07:30:50;96392.22;;;24.43;43.07
21821;BME280;11073;48.586;12.066;2023-06-19T07:33:19;96386.47;;;24.57;43.01
21821;BME280;11073;48.586;12.066;2023-06-19T07:35:47;96385.81;;;24.60;42.76
21821;BME280;11073;48.586;12.066;2023-06-19T07:38:16;96387.09;;;24.71;42.70
21821;BME280;11073;48.586;12.066;2023-06-19T07:40:45;96377.78;;;24.75;42.35
21821;BME280;11073;48.586;12.066;2023-06-19T07:43:16;96381.53;;;24.80;42.28
21821;BME280;11073;48.586;12.066;2023-06-19T07:45:45;96379.69;;;24.92;42.20
21821;BME280;11073;48.586;12.066;2023-06-19T07:48:14;96381.94;;;24.99;41.78
21821;BME280;11073;48.586;12.066;2023-06-19T07:50:43;96382.88;;;25.03;41.76
21821;BME280;11073;48.586;12.066;2023-06-19T07:53:11;96384.53;;;25.04;41.66
21821;BME280;11073;48.586;12.066;2023-06-19T07:55:40;96384.66;;;25.16;41.68
21821;BME280;11073;48.586;12.066;2023-06-19T07:58:09;96387.69;;;25.23;41.23
21821;BME280;11073;48.586;12.066;2023-06-19T08:00:39;96383.59;;;25.29;41.38
21821;BME280;11073;48.586;12.066;2023-06-19T08:03:08;96399.91;;;25.52;41.05
21821;BME280;11073;48.586;12.066;2023-06-19T08:05:37;96398.00;;;25.73;41.13
21821;BME280;11073;48.586;12.066;2023-06-19T08:08:06;96396.44;;;25.84;41.12
21821;BME280;11073;48.586;12.066;2023-06-19T08:10:34;96404.09;;;25.88;41.19
21821;BME280;11073;48.586;12.066;2023-06-19T08:13:02;96408.41;;;25.76;40.92
21821;BME280;11073;48.586;12.066;2023-06-19T08:15:31;96401.94;;;25.64;41.03
21821;BME280;11073;48.586;12.066;2023-06-19T08:18:00;96410.13;;;25.60;40.94
21821;BME280;11073;48.586;12.066;2023-06-19T08:20:29;96408.38;;;25.55;41.46
21821;BME280;11073;48.586;12.066;2023-06-19T08:22:58;96414.94;;;25.51;41.55
21821;BME280;11073;48.586;12.066;2023-06-19T08:25:27;96409.69;;;25.49;41.51
21821;BME280;11073;48.586;12.066;2023-06-19T08:27:56;96408.56;;;25.50;41.92
21821;BME280;11073;48.586;12.066;2023-06-19T08:30:24;96406.41;;;25.56;42.04
21821;BME280;11073;48.586;12.066;2023-06-19T08:32:53;96405.69;;;25.68;42.02
21821;BME280;11073;48.586;12.066;2023-06-19T08:35:23;96406.53;;;25.89;42.07
21821;BME280;11073;48.586;12.066;2023-06-19T08:37:52;96405.84;;;26.13;41.85
21821;BME280;11073;48.586;12.066;2023-06-19T08:40:20;96403.84;;;26.34;41.50
21821;BME280;11073;48.586;12.066;2023-06-19T08:42:50;96406.06;;;26.62;41.31
21821;BME280;11073;48.586;12.066;2023-06-19T08:45:19;96399.84;;;26.77;40.71
21821;BME280;11073;48.586;12.066;2023-06-19T08:47:48;96402.06;;;26.84;40.53
21821;BME280;11073;48.586;12.066;2023-06-19T08:50:19;96415.84;;;26.80;40.20
21821;BME280;11073;48.586;12.066;2023-06-19T08:52:49;96415.00;;;26.80;40.29
21821;BME280;11073;48.586;12.066;2023-06-19T08:55:17;96411.91;;;26.81;40.02
21821;BME280;11073;48.586;12.066;2023-06-19T08:57:48;96420.25;;;26.93;39.89
21821;BME280;11073;48.586;12.066;2023-06-19T09:00:23;96422.44;;;27.00;39.63
21821;BME280;11073;48.586;12.066;2023-06-19T09:03:00;96420.84;;;26.99;39.65
21821;BME280;11073;48.586;12.066;2023-06-19T09:05:41;96423.06;;;27.06;40.08
21821;BME280;11073;48.586;12.066;2023-06-19T09:08:22;96425.97;;;27.21;39.95
21821;BME280;11073;48.586;12.066;2023-06-19T09:13:28;96426.44;;;27.85;39.00
21821;BME280;11073;48.586;12.066;2023-06-19T09:16:00;96428.91;;;28.14;38.31
21821;BME280;11073;48.586;12.066;2023-06-19T09:18:29;96426.00;;;28.35;37.78
21821;BME280;11073;48.586;12.066;2023-06-19T09:20:59;96413.00;;;28.27;37.45
21821;BME280;11073;48.586;12.066;2023-06-19T09:23:29;96418.84;;;28.10;37.05
21821;BME280;11073;48.586;12.066;2023-06-19T09:26:02;96430.38;;;27.96;37.28
21821;BME280;11073;48.586;12.066;2023-06-19T09:28:33;96417.50;;;27.91;37.23
21821;BME280;11073;48.586;12.066;2023-06-19T09:31:02;96425.84;;;27.91;37.33
21821;BME280;11073;48.586;12.066;2023-06-19T09:33:33;96417.38;;;28.00;37.26
21821;BME280;11073;48.586;12.066;2023-06-19T09:36:04;96418.19;;;28.00;37.28
21821;BME280;11073;48.586;12.066;2023-06-19T09:38:35;96419.91;;;28.05;37.44
21821;BME280;11073;48.586;12.066;2023-06-19T09:41:08;96418.59;;;28.15;37.48
21821;BME280;11073;48.586;12.066;2023-06-19T09:43:38;96418.13;;;28.25;36.92
21821;BME280;11073;48.586;12.066;2023-06-19T09:46:07;96418.34;;;28.32;37.16
21821;BME280;11073;48.586;12.066;2023-06-19T09:48:41;96423.28;;;28.39;37.21
21821;BME280;11073;48.586;12.066;2023-06-19T09:51:17;96422.88;;;28.52;37.13
21821;BME280;11073;48.586;12.066;2023-06-19T09:53:48;96423.38;;;28.54;36.64
21821;BME280;11073;48.586;12.066;2023-06-19T09:56:18;96422.75;;;28.61;36.59
21821;BME280;11073;48.586;12.066;2023-06-19T09:58:50;96421.41;;;28.71;36.85
21821;BME280;11073;48.586;12.066;2023-06-19T10:01:20;96431.78;;;28.86;36.48
21821;BME280;11073;48.586;12.066;2023-06-19T10:03:49;96435.00;;;28.88;36.46
21821;BME280;11073;48.586;12.066;2023-06-19T10:06:22;96432.44;;;28.95;36.55
21821;BME280;11073;48.586;12.066;2023-06-19T10:08:52;96438.63;;;29.04;36.28
21821;BME280;11073;48.586;12.066;2023-06-19T10:11:21;96436.94;;;29.16;36.45
21821;BME280;11073;48.586;12.066;2023-06-19T10:13:51;96440.66;;;29.51;35.91
21821;BME280;11073;48.586;12.066;2023-06-19T10:16:21;96439.28;;;29.45;35.53
21821;BME280;11073;48.586;12.066;2023-06-19T10:18:50;96442.00;;;29.42;35.24
21821;BME280;11073;48.586;12.066;2023-06-19T10:21:20;96436.44;;;29.42;35.01
21821;BME280;11073;48.586;12.066;2023-06-19T10:23:57;96449.25;;;29.46;35.34
21821;BME280;11073;48.586;12.066;2023-06-19T10:26:31;96443.25;;;29.60;35.39
21821;BME280;11073;48.586;12.066;2023-06-19T10:29:01;96444.16;;;29.64;35.14
21821;BME280;11073;48.586;12.066;2023-06-19T10:31:31;96441.81;;;29.66;34.99
21821;BME280;11073;48.586;12.066;2023-06-19T10:34:02;96436.63;;;29.84;34.51
21821;BME280;11073;48.586;12.066;2023-06-19T10:36:32;96445.63;;;29.93;34.43
21821;BME280;11073;48.586;12.066;2023-06-19T10:39:02;96445.34;;;30.14;34.08
21821;BME280;11073;48.586;12.066;2023-06-19T10:41:32;96432.69;;;30.20;34.43
21821;BME280;11073;48.586;12.066;2023-06-19T10:44:01;96423.75;;;30.30;34.26
21821;BME280;11073;48.586;12.066;2023-06-19T10:46:32;96436.91;;;30.68;34.34
21821;BME280;11073;48.586;12.066;2023-06-19T10:49:05;96434.25;;;30.95;33.85
21821;BME280;11073;48.586;12.066;2023-06-19T10:51:35;96435.22;;;31.25;33.36
21821;BME280;11073;48.586;12.066;2023-06-19T10:54:06;96428.88;;;31.51;32.90
21821;BME280;11073;48.586;12.066;2023-06-19T10:56:36;96422.97;;;31.83;32.29
21821;BME280;11073;48.586;12.066;2023-06-19T10:59:07;96429.59;;;31.98;32.23
21821;BME280;11073;48.586;12.066;2023-06-19T11:01:38;96430.31;;;32.21;31.88
21821;BME280;11073;48.586;12.066;2023-06-19T11:04:09;96418.94;;;32.37;31.39
21821;BME280;11073;48.586;12.066;2023-06-19T11:06:40;96425.38;;;32.71;31.49
21821;BME280;11073;48.586;12.066;2023-06-19T11:09:12;96425.28;;;32.98;30.76
21821;BME280;11073;48.586;12.066;2023-06-19T11:11:43;96425.50;;;33.19;30.52
21821;BME280;11073;48.586;12.066;2023-06-19T11:14:14;96424.50;;;33.01;30.31
21821;BME280;11073;48.586;12.066;2023-06-19T11:16:45;96415.63;;;32.95;30.30
21821;BME280;11073;48.586;12.066;2023-06-19T11:19:15;96411.66;;;32.96;30.10
21821;BME280;11073;48.586;12.066;2023-06-19T11:21:47;96413.03;;;32.79;30.08
21821;BME280;11073;48.586;12.066;2023-06-19T11:24:18;96414.66;;;32.80;30.10
21821;BME280;11073;48.586;12.066;2023-06-19T11:26:49;96425.97;;;32.87;30.04
21821;BME280;11073;48.586;12.066;2023-06-19T11:29:20;96419.28;;;32.99;29.80
21821;BME280;11073;48.586;12.066;2023-06-19T11:31:50;96414.69;;;33.21;29.85
21821;BME280;11073;48.586;12.066;2023-06-19T11:34:31;96411.88;;;33.21;29.68
21821;BME280;11073;48.586;12.066;2023-06-19T11:37:00;96406.22;;;33.14;29.63
21821;BME280;11073;48.586;12.066;2023-06-19T11:39:31;96404.25;;;33.18;29.92
21821;BME280;11073;48.586;12.066;2023-06-19T11:41:59;96405.47;;;33.65;29.72
21821;BME280;11073;48.586;12.066;2023-06-19T11:44:28;96406.19;;;34.10;29.43
21821;BME280;11073;48.586;12.066;2023-06-19T11:46:58;96407.63;;;34.51;29.09
21821;BME280;11073;48.586;12.066;2023-06-19T11:49:27;96408.94;;;34.86;28.72
21821;BME280;11073;48.586;12.066;2023-06-19T11:51:59;96402.59;;;35.18;28.07
21821;BME280;11073;48.586;12.066;2023-06-19T11:54:28;96401.81;;;35.28;27.50
21821;BME280;11073;48.586;12.066;2023-06-19T11:56:58;96392.53;;;34.99;27.18
21821;BME280;11073;48.586;12.066;2023-06-19T11:59:26;96392.69;;;34.40;27.22
21821;BME280;11073;48.586;12.066;2023-06-19T12:01:55;96384.06;;;34.01;27.80
21821;BME280;11073;48.586;12.066;2023-06-19T12:04:26;96375.84;;;33.74;27.73
21821;BME280;11073;48.586;12.066;2023-06-19T12:06:55;96378.31;;;33.32;28.00
21821;BME280;11073;48.586;12.066;2023-06-19T12:09:24;96362.97;;;33.15;28.64
21821;BME280;11073;48.586;12.066;2023-06-19T12:11:53;96374.38;;;32.96;28.48
21821;BME280;11073;48.586;12.066;2023-06-19T12:14:23;96366.69;;;32.85;28.81
21821;BME280;11073;48.586;12.066;2023-06-19T12:16:53;96372.91;;;32.68;29.41
21821;BME280;11073;48.586;12.066;2023-06-19T12:19:21;96361.97;;;32.56;29.15
21821;BME280;11073;48.586;12.066;2023-06-19T12:21:51;96368.25;;;32.46;29.58
21821;BME280;11073;48.586;12.066;2023-06-19T12:24:20;96363.81;;;32.45;29.85
21821;BME280;11073;48.586;12.066;2023-06-19T12:26:49;96360.66;;;32.46;30.01
21821;BME280;11073;48.586;12.066;2023-06-19T12:29:18;96355.41;;;32.45;29.70
21821;BME280;11073;48.586;12.066;2023-06-19T12:31:50;96365.63;;;32.60;30.32
21821;BME280;11073;48.586;12.066;2023-06-19T12:34:19;96366.44;;;33.01;30.12
21821;BME280;11073;48.586;12.066;2023-06-19T12:36:57;96364.38;;;32.95;30.40
21821;BME280;11073;48.586;12.066;2023-06-19T12:39:26;96363.50;;;32.87;30.27
21821;BME280;11073;48.586;12.066;2023-06-19T12:41:55;96362.97;;;32.78;30.26
21821;BME280;11073;48.586;12.066;2023-06-19T12:44:24;96353.72;;;32.70;30.10
21821;BME280;11073;48.586;12.066;2023-06-19T12:46:54;96357.72;;;32.73;30.12
21821;BME280;11073;48.586;12.066;2023-06-19T12:49:22;96352.44;;;32.64;30.33
21821;BME280;11073;48.586;12.066;2023-06-19T12:51:51;96358.13;;;32.71;30.46
21821;BME280;11073;48.586;12.066;2023-06-19T12:54:20;96361.13;;;32.89;30.16
21821;BME280;11073;48.586;12.066;2023-06-19T12:56:49;96358.22;;;33.23;30.00
21821;BME280;11073;48.586;12.066;2023-06-19T12:59:18;96356.31;;;33.37;29.95
21821;BME280;11073;48.586;12.066;2023-06-19T13:01:47;96356.88;;;33.50;29.73
21821;BME280;11073;48.586;12.066;2023-06-19T13:04:17;96358.66;;;33.80;29.42
21821;BME280;11073;48.586;12.066;2023-06-19T13:06:46;96360.31;;;33.88;29.11